createdAt,value
2019-01-25T00:00:39.848Z,0.00
2019-01-25T00:01:39.989Z,0.00
2019-01-25T00:02:40.130Z,0.00
2019-01-25T00:03:40.273Z,0.00
2019-01-25T00:04:40.414Z,0.00
2019-01-25T00:05:40.556Z,0.00
2019-01-25T00:06:40.695Z,0.00
2019-01-25T00:07:40.841Z,0.00
2019-01-25T00:08:40.979Z,0.00
2019-01-25T00:09:41.120Z,0.00
2019-01-25T00:10:41.261Z,0.00
2019-01-25T00:11:41.402Z,0.00
2019-01-25T00:12:41.546Z,0.00
2019-01-25T00:13:41.722Z,0.00
2019-01-25T00:14:41.828Z,0.00
2019-01-25T00:15:41.964Z,0.00
2019-01-25T00:16:42.106Z,0.00
2019-01-25T00:17:42.248Z,0.00
2019-01-25T00:18:42.394Z,0.00
2019-01-25T00:19:42.530Z,0.00
2019-01-25T00:20:42.715Z,0.00
2019-01-25T00:21:42.808Z,0.00
2019-01-25T00:22:42.953Z,0.00
2019-01-25T00:23:43.091Z,0.00
2019-01-25T00:24:43.233Z,0.00
2019-01-25T00:25:43.372Z,0.00
2019-01-25T00:26:43.513Z,0.00
2019-01-25T00:27:43.653Z,0.00
2019-01-25T00:28:43.864Z,0.00
2019-01-25T00:29:43.937Z,0.00
2019-01-25T00:30:44.076Z,0.00
2019-01-25T00:31:44.216Z,0.00
2019-01-25T00:32:44.356Z,0.00
2019-01-25T00:33:44.500Z,0.00
2019-01-25T00:34:44.644Z,0.00
2019-01-25T00:35:44.788Z,0.00
2019-01-25T00:36:44.927Z,0.00
2019-01-25T00:37:45.066Z,0.00
2019-01-25T00:38:45.207Z,0.00
2019-01-25T00:39:45.352Z,0.00
2019-01-25T00:40:45.491Z,0.00
2019-01-25T00:41:45.633Z,0.00
2019-01-25T00:42:45.775Z,0.00
2019-01-25T00:43:45.917Z,0.00
2019-01-25T00:44:46.058Z,0.00
2019-01-25T00:45:46.198Z,0.00
2019-01-25T00:46:46.339Z,0.00
2019-01-25T00:47:46.483Z,0.00
2019-01-25T00:48:46.622Z,0.00
2019-01-25T00:49:46.760Z,0.00
2019-01-25T00:50:46.905Z,0.00
2019-01-25T00:51:47.046Z,0.00
2019-01-25T00:52:47.186Z,0.00
2019-01-25T00:53:47.331Z,0.00
2019-01-25T00:54:47.471Z,0.00
2019-01-25T00:55:47.610Z,0.00
2019-01-25T00:56:47.752Z,0.00
2019-01-25T00:57:47.893Z,0.00
2019-01-25T00:58:48.033Z,0.00
2019-01-25T00:59:48.177Z,0.00
2019-01-25T01:00:48.328Z,0.00
2019-01-25T01:01:48.478Z,0.00
2019-01-25T01:02:48.632Z,0.00
2019-01-25T01:03:48.772Z,0.00
2019-01-25T01:04:48.913Z,0.00
2019-01-25T01:05:49.053Z,0.00
2019-01-25T01:06:49.199Z,0.00
2019-01-25T01:07:49.335Z,0.00
2019-01-25T01:08:49.478Z,0.00
2019-01-25T01:09:49.621Z,0.00
2019-01-25T01:10:49.760Z,0.00
2019-01-25T01:11:49.897Z,0.00
2019-01-25T01:12:50.040Z,0.00
2019-01-25T01:13:50.180Z,0.00
2019-01-25T01:14:50.320Z,0.00
2019-01-25T01:15:50.463Z,0.00
2019-01-25T01:16:50.605Z,0.00
2019-01-25T01:17:50.743Z,0.00
2019-01-25T01:18:50.888Z,0.00
2019-01-25T01:19:51.028Z,0.00
2019-01-25T01:20:51.170Z,0.00
2019-01-25T01:21:51.325Z,0.00
2019-01-25T01:22:51.458Z,0.00
2019-01-25T01:23:51.604Z,0.00
2019-01-25T01:24:51.740Z,0.00
2019-01-25T01:25:51.881Z,0.00
2019-01-25T01:26:52.024Z,0.00
2019-01-25T01:27:52.166Z,0.00
2019-01-25T01:28:52.305Z,0.00
2019-01-25T01:29:52.449Z,0.00
2019-01-25T01:30:52.589Z,0.00
2019-01-25T01:31:52.729Z,0.00
2019-01-25T01:32:52.871Z,0.00
2019-01-25T01:33:53.015Z,0.00
2019-01-25T01:34:53.156Z,0.00
2019-01-25T01:35:53.295Z,0.00
2019-01-25T01:36:53.437Z,0.00
2019-01-25T01:37:53.574Z,0.00
2019-01-25T01:38:53.716Z,0.00
2019-01-25T01:39:53.860Z,0.00
2019-01-25T01:40:54.000Z,0.00
2019-01-25T01:41:54.143Z,0.00
2019-01-25T01:42:54.283Z,0.00
2019-01-25T01:43:54.425Z,0.00
2019-01-25T01:44:54.567Z,0.00
2019-01-25T01:45:54.705Z,0.00
2019-01-25T01:46:54.848Z,0.00
2019-01-25T01:47:54.988Z,0.00
2019-01-25T01:48:55.132Z,0.00
2019-01-25T01:49:55.273Z,0.00
2019-01-25T01:50:55.411Z,0.00
2019-01-25T01:51:55.552Z,0.00
2019-01-25T01:52:55.692Z,0.00
2019-01-25T01:53:55.833Z,0.00
2019-01-25T01:54:55.977Z,0.00
2019-01-25T01:55:56.119Z,0.00
2019-01-25T01:56:56.259Z,0.00
2019-01-25T01:57:56.399Z,0.00
2019-01-25T01:58:56.541Z,0.00
2019-01-25T01:59:56.684Z,0.00
2019-01-25T02:00:56.832Z,0.00
2019-01-25T02:01:56.965Z,0.00
2019-01-25T02:02:57.106Z,0.00
2019-01-25T02:03:57.248Z,0.00
2019-01-25T02:04:57.387Z,0.00
2019-01-25T02:05:57.530Z,0.00
2019-01-25T02:06:57.672Z,0.00
2019-01-25T02:07:57.812Z,0.00
2019-01-25T02:08:57.953Z,0.00
2019-01-25T02:09:58.092Z,0.00
2019-01-25T02:10:58.236Z,0.00
2019-01-25T02:11:58.378Z,0.00
2019-01-25T02:12:58.520Z,0.00
2019-01-25T02:13:58.659Z,0.00
2019-01-25T02:14:58.800Z,0.00
2019-01-25T02:15:58.940Z,0.00
2019-01-25T02:16:59.084Z,0.00
2019-01-25T02:17:59.227Z,0.00
2019-01-25T02:18:59.371Z,0.00
2019-01-25T02:19:59.513Z,0.00
2019-01-25T02:20:59.654Z,0.00
2019-01-25T02:21:59.796Z,0.00
2019-01-25T02:22:59.937Z,0.00
2019-01-25T02:24:00.080Z,0.00
2019-01-25T02:25:00.219Z,0.00
2019-01-25T02:26:00.364Z,0.00
2019-01-25T02:27:00.503Z,0.00
2019-01-25T02:28:00.642Z,0.00
2019-01-25T02:29:00.784Z,0.00
2019-01-25T02:30:00.928Z,0.00
2019-01-25T02:31:01.062Z,0.00
2019-01-25T02:32:01.205Z,0.00
2019-01-25T02:33:01.348Z,0.00
2019-01-25T02:34:01.503Z,0.00
2019-01-25T02:35:01.642Z,0.00
2019-01-25T02:36:01.766Z,0.00
2019-01-25T02:37:01.909Z,0.00
2019-01-25T02:38:02.057Z,0.00
2019-01-25T02:39:02.188Z,0.00
2019-01-25T02:40:02.330Z,0.00
2019-01-25T02:41:02.470Z,0.00
2019-01-25T02:42:02.618Z,0.00
2019-01-25T02:43:02.752Z,0.00
2019-01-25T02:44:02.892Z,0.00
2019-01-25T02:45:03.034Z,0.00
2019-01-25T02:46:03.176Z,0.00
2019-01-25T02:47:03.314Z,0.00
2019-01-25T02:48:03.453Z,0.00
2019-01-25T02:49:03.599Z,0.00
2019-01-25T02:50:03.738Z,0.00
2019-01-25T02:51:03.874Z,0.00
2019-01-25T02:52:04.021Z,0.00
2019-01-25T02:53:04.282Z,0.00
2019-01-25T02:54:04.302Z,0.00
2019-01-25T02:55:04.437Z,0.00
2019-01-25T02:56:05.557Z,0.00
2019-01-25T02:57:04.721Z,0.00
2019-01-25T02:58:04.861Z,0.00
2019-01-25T02:59:05.002Z,0.00
2019-01-25T03:00:05.142Z,0.00
2019-01-25T03:01:05.282Z,0.00
2019-01-25T03:02:05.422Z,0.00
2019-01-25T03:03:05.565Z,0.00
2019-01-25T03:04:05.707Z,0.00
2019-01-25T03:05:05.851Z,0.00
2019-01-25T03:06:05.990Z,0.00
2019-01-25T03:07:06.133Z,0.00
2019-01-25T03:08:06.271Z,0.00
2019-01-25T03:09:06.412Z,0.00
2019-01-25T03:10:06.552Z,0.00
2019-01-25T03:11:06.695Z,0.00
2019-01-25T03:12:06.836Z,0.00
2019-01-25T03:13:06.976Z,0.00
2019-01-25T03:14:07.119Z,0.00
2019-01-25T03:15:07.261Z,0.00
2019-01-25T03:16:07.399Z,0.00
2019-01-25T03:17:07.579Z,0.00
2019-01-25T03:18:07.681Z,0.00
2019-01-25T03:19:07.840Z,0.00
2019-01-25T03:20:07.963Z,0.00
2019-01-25T03:21:08.103Z,0.00
2019-01-25T03:22:08.249Z,0.00
2019-01-25T03:23:08.386Z,0.00
2019-01-25T03:24:08.528Z,0.00
2019-01-25T03:25:08.668Z,0.00
2019-01-25T03:26:08.811Z,0.00
2019-01-25T03:27:08.953Z,0.00
2019-01-25T03:28:09.093Z,0.00
2019-01-25T03:29:09.234Z,0.00
2019-01-25T03:30:09.376Z,0.00
2019-01-25T03:31:09.518Z,0.00
2019-01-25T03:32:09.681Z,0.00
2019-01-25T03:33:09.799Z,0.00
2019-01-25T03:34:09.946Z,0.00
2019-01-25T03:35:10.083Z,0.00
2019-01-25T03:36:10.222Z,0.00
2019-01-25T03:37:10.363Z,0.00
2019-01-25T03:38:10.504Z,0.00
2019-01-25T03:39:10.644Z,0.00
2019-01-25T03:40:10.786Z,0.00
2019-01-25T03:41:10.930Z,0.00
2019-01-25T03:42:11.075Z,0.00
2019-01-25T03:43:11.213Z,0.00
2019-01-25T03:44:11.354Z,0.00
2019-01-25T03:45:11.495Z,0.00
2019-01-25T03:46:11.635Z,0.00
2019-01-25T03:47:11.775Z,0.00
2019-01-25T03:48:11.941Z,0.00
2019-01-25T03:49:12.373Z,0.00
2019-01-25T03:50:12.223Z,0.00
2019-01-25T03:51:12.365Z,0.00
2019-01-25T03:52:12.505Z,0.00
2019-01-25T03:53:12.648Z,0.00
2019-01-25T03:54:12.787Z,0.00
2019-01-25T03:55:12.927Z,0.00
2019-01-25T03:56:13.075Z,0.00
2019-01-25T03:57:13.211Z,0.00
2019-01-25T03:58:13.354Z,0.00
2019-01-25T03:59:13.499Z,0.00
2019-01-25T04:00:13.638Z,0.00
2019-01-25T04:01:13.780Z,0.00
2019-01-25T04:02:13.920Z,0.00
2019-01-25T04:03:14.066Z,0.00
2019-01-25T04:04:14.205Z,0.00
2019-01-25T04:05:14.353Z,0.00
2019-01-25T04:06:14.488Z,0.00
2019-01-25T04:07:14.629Z,0.00
2019-01-25T04:08:14.771Z,0.00
2019-01-25T04:09:14.911Z,0.00
2019-01-25T04:10:15.050Z,0.00
2019-01-25T04:11:15.192Z,0.00
2019-01-25T04:12:15.334Z,0.00
2019-01-25T04:13:15.474Z,0.00
2019-01-25T04:14:15.614Z,0.00
2019-01-25T04:15:15.755Z,0.00
2019-01-25T04:16:15.897Z,0.00
2019-01-25T04:17:16.042Z,0.00
2019-01-25T04:18:16.180Z,0.00
2019-01-25T04:19:16.321Z,0.00
2019-01-25T04:20:16.463Z,0.00
2019-01-25T04:21:16.607Z,0.00
2019-01-25T04:22:16.746Z,0.00
2019-01-25T04:23:16.887Z,0.00
2019-01-25T04:24:17.026Z,0.00
2019-01-25T04:25:17.168Z,0.00
2019-01-25T04:26:17.311Z,0.00
2019-01-25T04:27:17.449Z,0.00
2019-01-25T04:28:17.593Z,0.00
2019-01-25T04:29:17.731Z,0.00
2019-01-25T04:30:17.874Z,0.00
2019-01-25T04:31:18.017Z,0.00
2019-01-25T04:32:18.156Z,0.00
2019-01-25T04:33:18.299Z,0.00
2019-01-25T04:34:18.440Z,0.00
2019-01-25T04:35:18.579Z,0.00
2019-01-25T04:36:18.722Z,0.00
2019-01-25T04:37:18.863Z,0.00
2019-01-25T04:38:19.004Z,0.00
2019-01-25T04:39:19.144Z,0.00
2019-01-25T04:40:19.282Z,0.00
2019-01-25T04:41:19.424Z,0.00
2019-01-25T04:42:19.566Z,0.00
2019-01-25T04:43:19.707Z,0.00
2019-01-25T04:44:19.846Z,0.00
2019-01-25T04:45:19.989Z,0.00
2019-01-25T04:46:20.127Z,0.00
2019-01-25T04:47:20.267Z,0.00
2019-01-25T04:48:20.409Z,0.00
2019-01-25T04:49:20.552Z,0.00
2019-01-25T04:50:20.695Z,0.00
2019-01-25T04:51:20.835Z,0.00
2019-01-25T04:52:20.974Z,0.00
2019-01-25T04:53:21.117Z,0.00
2019-01-25T04:54:21.258Z,0.00
2019-01-25T04:55:21.403Z,0.00
2019-01-25T04:56:21.537Z,0.00
2019-01-25T04:57:21.678Z,0.00
2019-01-25T04:58:21.839Z,0.00
2019-01-25T04:59:21.964Z,0.00
2019-01-25T05:00:22.102Z,0.00
2019-01-25T05:01:22.245Z,0.00
2019-01-25T05:02:22.383Z,0.00
2019-01-25T05:03:22.535Z,0.00
2019-01-25T05:04:22.664Z,0.00
2019-01-25T05:05:22.811Z,0.00
2019-01-25T05:06:22.952Z,0.00
2019-01-25T05:07:23.092Z,0.00
2019-01-25T05:08:23.234Z,0.00
2019-01-25T05:09:23.374Z,0.00
2019-01-25T05:10:23.516Z,0.00
2019-01-25T05:11:23.657Z,0.00
2019-01-25T05:12:23.798Z,0.00
2019-01-25T05:13:23.938Z,0.00
2019-01-25T05:14:24.079Z,0.00
2019-01-25T05:15:24.222Z,0.00
2019-01-25T05:16:24.361Z,0.00
2019-01-25T05:17:24.502Z,0.00
2019-01-25T05:18:24.644Z,0.00
2019-01-25T05:19:24.790Z,0.00
2019-01-25T05:20:24.927Z,0.00
2019-01-25T05:21:25.068Z,0.00
2019-01-25T05:22:25.209Z,0.00
2019-01-25T05:23:25.373Z,0.00
2019-01-25T05:24:25.501Z,0.00
2019-01-25T05:25:25.633Z,0.00
2019-01-25T05:26:25.774Z,0.00
2019-01-25T05:27:25.913Z,0.00
2019-01-25T05:28:26.051Z,0.00
2019-01-25T05:29:26.197Z,0.00
2019-01-25T05:30:26.336Z,0.00
2019-01-25T05:31:26.479Z,0.00
2019-01-25T05:32:26.621Z,0.00
2019-01-25T05:33:26.761Z,0.00
2019-01-25T05:34:26.914Z,0.00
2019-01-25T05:35:27.045Z,0.00
2019-01-25T05:36:27.184Z,0.00
2019-01-25T05:37:27.325Z,0.00
2019-01-25T05:38:27.465Z,0.00
2019-01-25T05:39:27.605Z,0.00
2019-01-25T05:40:27.744Z,0.00
2019-01-25T05:41:28.884Z,0.00
2019-01-25T05:42:28.027Z,0.00
2019-01-25T05:43:28.179Z,0.00
2019-01-25T05:44:28.308Z,0.00
2019-01-25T05:45:28.451Z,0.00
2019-01-25T05:46:28.599Z,0.00
2019-01-25T05:47:28.734Z,0.00
2019-01-25T05:48:28.874Z,0.00
2019-01-25T05:49:29.017Z,0.00
2019-01-25T05:50:29.156Z,0.00
2019-01-25T05:51:33.572Z,0.00
2019-01-25T05:52:29.441Z,0.00
2019-01-25T05:53:29.584Z,0.00
2019-01-25T05:54:29.729Z,0.00
2019-01-25T05:55:29.869Z,0.00
2019-01-25T05:56:30.011Z,0.00
2019-01-25T05:57:30.153Z,0.00
2019-01-25T05:58:30.297Z,0.00
2019-01-25T05:59:30.429Z,0.00
2019-01-25T06:00:30.571Z,0.00
2019-01-25T06:01:30.712Z,0.00
2019-01-25T06:02:30.853Z,0.00
2019-01-25T06:03:30.998Z,0.00
2019-01-25T06:04:31.143Z,0.00
2019-01-25T06:05:31.279Z,0.00
2019-01-25T06:06:31.420Z,0.00
2019-01-25T06:07:31.562Z,0.00
2019-01-25T06:08:31.706Z,0.00
2019-01-25T06:09:31.845Z,0.00
2019-01-25T06:10:31.990Z,0.00
2019-01-25T06:11:35.533Z,0.00
2019-01-25T06:12:32.287Z,0.00
2019-01-25T06:13:32.407Z,0.00
2019-01-25T06:14:32.549Z,0.00
2019-01-25T06:15:32.689Z,0.00
2019-01-25T06:16:32.834Z,0.00
2019-01-25T06:17:32.974Z,0.00
2019-01-25T06:18:33.110Z,0.00
2019-01-25T06:19:33.249Z,0.00
2019-01-25T06:20:33.395Z,0.00
2019-01-25T06:21:33.533Z,0.00
2019-01-25T06:22:33.673Z,0.00
2019-01-25T06:23:33.816Z,0.00
2019-01-25T06:24:33.958Z,0.00
2019-01-25T06:25:34.119Z,0.00
2019-01-25T06:26:34.242Z,0.00
2019-01-25T06:27:34.384Z,0.00
2019-01-25T06:28:34.525Z,0.00
2019-01-25T06:29:34.667Z,0.00
2019-01-25T06:30:34.808Z,0.00
2019-01-25T06:31:34.950Z,0.00
2019-01-25T06:32:35.089Z,0.00
2019-01-25T06:33:35.231Z,0.00
2019-01-25T06:34:35.372Z,0.00
2019-01-25T06:35:35.516Z,0.00
2019-01-25T06:36:35.656Z,0.00
2019-01-25T06:37:35.798Z,0.00
2019-01-25T06:38:35.940Z,0.00
2019-01-25T06:39:36.084Z,4.00
2019-01-25T06:40:36.225Z,4.00
2019-01-25T06:41:43.813Z,0.00
2019-01-25T06:42:36.506Z,4.00
2019-01-25T06:43:36.650Z,4.00
2019-01-25T06:44:36.792Z,0.00
2019-01-25T06:45:36.929Z,4.00
2019-01-25T06:46:37.073Z,8.00
2019-01-25T06:47:37.212Z,4.00
2019-01-25T06:48:37.355Z,4.00
2019-01-25T06:49:37.500Z,8.00
2019-01-25T06:50:37.640Z,8.00
2019-01-25T06:51:37.781Z,8.00
2019-01-25T06:52:37.924Z,8.00
2019-01-25T06:53:38.068Z,12.00
2019-01-25T06:54:38.207Z,16.00
2019-01-25T06:55:38.350Z,16.00
2019-01-25T06:56:38.493Z,20.00
2019-01-25T06:57:38.634Z,24.00
2019-01-25T06:58:38.773Z,28.00
2019-01-25T06:59:38.918Z,28.00
2019-01-25T07:00:39.059Z,32.00
2019-01-25T07:01:39.195Z,36.00
2019-01-25T07:02:39.340Z,40.00
2019-01-25T07:03:39.478Z,44.00
2019-01-25T07:04:39.623Z,52.00
2019-01-25T07:05:39.765Z,56.00
2019-01-25T07:06:39.906Z,60.00
2019-01-25T07:07:40.045Z,68.00
2019-01-25T07:08:40.188Z,72.00
2019-01-25T07:09:40.329Z,76.00
2019-01-25T07:10:40.472Z,80.00
2019-01-25T07:11:42.214Z,84.00
2019-01-25T07:12:40.757Z,96.00
2019-01-25T07:13:40.899Z,100.00
2019-01-25T07:14:41.041Z,112.00
2019-01-25T07:15:41.188Z,124.00
2019-01-25T07:16:41.327Z,140.00
2019-01-25T07:17:41.467Z,152.00
2019-01-25T07:18:41.612Z,160.00
2019-01-25T07:19:41.754Z,168.00
2019-01-25T07:20:41.895Z,180.00
2019-01-25T07:21:42.065Z,192.00
2019-01-25T07:22:42.208Z,208.00
2019-01-25T07:23:42.348Z,224.00
2019-01-25T07:24:42.489Z,232.00
2019-01-25T07:25:42.631Z,240.00
2019-01-25T07:26:42.775Z,248.00
2019-01-25T07:27:42.915Z,252.00
2019-01-25T07:28:43.057Z,260.00
2019-01-25T07:29:43.202Z,268.00
2019-01-25T07:30:43.342Z,276.00
2019-01-25T07:31:43.493Z,284.00
2019-01-25T07:32:43.671Z,292.00
2019-01-25T07:33:43.772Z,308.00
2019-01-25T07:34:43.930Z,316.00
2019-01-25T07:35:44.053Z,328.00
2019-01-25T07:36:44.427Z,340.00
2019-01-25T07:37:44.338Z,364.00
2019-01-25T07:38:44.479Z,388.00
2019-01-25T07:39:44.637Z,408.00
2019-01-25T07:40:44.763Z,432.00
2019-01-25T07:41:44.913Z,460.00
2019-01-25T07:42:45.046Z,504.00
2019-01-25T07:43:45.190Z,556.00
2019-01-25T07:44:45.326Z,592.00
2019-01-25T07:45:45.468Z,616.00
2019-01-25T07:46:45.629Z,648.00
2019-01-25T07:47:45.752Z,688.00
2019-01-25T07:48:45.894Z,720.00
2019-01-25T07:49:46.032Z,740.00
2019-01-25T07:50:46.225Z,764.00
2019-01-25T07:51:46.315Z,800.00
2019-01-25T07:52:46.458Z,832.00
2019-01-25T07:53:46.600Z,864.00
2019-01-25T07:54:46.797Z,896.00
2019-01-25T07:55:46.883Z,920.00
2019-01-25T07:56:47.028Z,952.00
2019-01-25T07:57:47.162Z,1000.00
2019-01-25T07:58:47.317Z,1064.00
2019-01-25T07:59:47.454Z,1120.00
2019-01-25T08:00:47.605Z,1152.00
2019-01-25T08:01:47.730Z,1188.00
2019-01-25T08:02:47.951Z,1228.00
2019-01-25T08:03:48.013Z,1288.00
2019-01-25T08:04:48.175Z,1340.00
2019-01-25T08:05:48.322Z,1376.00
2019-01-25T08:06:48.637Z,1404.00
2019-01-25T08:07:48.584Z,1472.00
2019-01-25T08:08:48.723Z,1560.00
2019-01-25T08:09:48.874Z,1636.00
2019-01-25T08:10:49.013Z,1664.00
2019-01-25T08:11:49.149Z,1728.00
2019-01-25T08:12:49.290Z,1800.00
2019-01-25T08:13:49.485Z,1884.00
2019-01-25T08:14:49.573Z,2004.00
2019-01-25T08:15:49.715Z,2160.00
2019-01-25T08:16:49.856Z,2272.00
2019-01-25T08:17:50.026Z,2364.00
2019-01-25T08:18:50.140Z,2448.00
2019-01-25T08:19:50.285Z,2512.00
2019-01-25T08:20:50.454Z,2572.00
2019-01-25T08:21:50.568Z,2588.00
2019-01-25T08:22:50.739Z,2600.00
2019-01-25T08:23:50.867Z,2652.00
2019-01-25T08:24:50.994Z,2720.00
2019-01-25T08:25:51.173Z,2760.00
2019-01-25T08:26:51.279Z,2764.00
2019-01-25T08:27:51.426Z,2764.00
2019-01-25T08:28:51.565Z,2764.00
2019-01-25T08:29:51.710Z,2756.00
2019-01-25T08:30:51.867Z,2788.00
2019-01-25T08:31:51.995Z,2836.00
2019-01-25T08:32:52.186Z,2836.00
2019-01-25T08:33:52.297Z,2844.00
2019-01-25T08:34:52.419Z,2884.00
2019-01-25T08:35:52.571Z,2960.00
2019-01-25T08:36:52.703Z,2964.00
2019-01-25T08:37:52.843Z,2984.00
2019-01-25T08:38:52.985Z,2984.00
2019-01-25T08:39:53.146Z,2996.00
2019-01-25T08:40:53.377Z,3140.00
2019-01-25T08:41:53.421Z,3132.00
2019-01-25T08:42:53.555Z,3108.00
2019-01-25T08:43:53.695Z,3176.00
2019-01-25T08:44:53.887Z,3228.00
2019-01-25T08:45:53.998Z,3224.00
2019-01-25T08:46:54.126Z,3252.00
2019-01-25T08:47:54.298Z,3240.00
2019-01-25T08:48:54.406Z,3296.00
2019-01-25T08:49:57.931Z,3328.00
2019-01-25T08:50:54.689Z,3376.00
2019-01-25T08:51:54.849Z,3464.00
2019-01-25T08:52:55.014Z,3500.00
2019-01-25T08:53:55.135Z,3536.00
2019-01-25T08:54:55.256Z,3572.00
2019-01-25T08:55:55.400Z,3628.00
2019-01-25T08:56:55.541Z,3732.00
2019-01-25T08:57:55.784Z,3800.00
2019-01-25T08:58:55.829Z,3880.00
2019-01-25T08:59:55.968Z,3972.00
2019-01-25T09:00:56.113Z,4028.00
2019-01-25T09:01:56.252Z,4144.00
2019-01-25T09:02:56.400Z,3940.00
2019-01-25T09:03:56.535Z,4280.00
2019-01-25T09:04:56.682Z,4388.00
2019-01-25T09:05:56.822Z,4448.00
2019-01-25T09:06:56.966Z,4400.00
2019-01-25T09:07:57.108Z,4360.00
2019-01-25T09:08:57.249Z,4120.00
2019-01-25T09:09:57.395Z,4332.00
2019-01-25T09:10:57.538Z,4608.00
2019-01-25T09:11:57.677Z,4688.00
2019-01-25T09:12:57.818Z,4796.00
2019-01-25T09:13:57.968Z,4932.00
2019-01-25T09:14:58.113Z,5016.00
2019-01-25T09:15:58.248Z,5052.00
2019-01-25T09:16:58.390Z,5116.00
2019-01-25T09:17:58.531Z,5176.00
2019-01-25T09:18:58.676Z,5236.00
2019-01-25T09:19:58.816Z,5248.00
2019-01-25T09:20:58.961Z,5288.00
2019-01-25T09:21:59.106Z,5296.00
2019-01-25T09:22:59.246Z,5352.00
2019-01-25T09:23:59.390Z,5276.00
2019-01-25T09:24:59.532Z,5196.00
2019-01-25T09:26:01.121Z,5292.00
2019-01-25T09:26:59.820Z,5416.00
2019-01-25T09:27:59.962Z,5528.00
2019-01-25T09:29:00.102Z,5536.00
2019-01-25T09:30:00.244Z,5492.00
2019-01-25T09:31:00.385Z,5532.00
2019-01-25T09:32:00.563Z,5652.00
2019-01-25T09:33:00.674Z,5756.00
2019-01-25T09:34:00.816Z,5792.00
2019-01-25T09:35:00.960Z,5876.00
2019-01-25T09:36:01.103Z,5868.00
2019-01-25T09:37:01.243Z,5920.00
2019-01-25T09:38:01.395Z,5932.00
2019-01-25T09:39:01.531Z,5880.00
2019-01-25T09:40:01.673Z,5896.00
2019-01-25T09:41:01.818Z,5964.00
2019-01-25T09:42:01.960Z,6024.00
2019-01-25T09:43:02.105Z,6020.00
2019-01-25T09:44:02.247Z,5988.00
2019-01-25T09:45:02.388Z,6020.00
2019-01-25T09:46:02.530Z,6168.00
2019-01-25T09:47:02.674Z,6244.00
2019-01-25T09:48:02.817Z,6292.00
2019-01-25T09:49:02.961Z,6248.00
2019-01-25T09:50:03.109Z,6112.00
2019-01-25T09:51:03.247Z,6096.00
2019-01-25T09:52:03.388Z,6228.00
2019-01-25T09:53:03.535Z,6472.00
2019-01-25T09:54:03.674Z,6456.00
2019-01-25T09:55:03.815Z,6268.00
2019-01-25T09:56:03.957Z,6212.00
2019-01-25T09:57:04.101Z,6296.00
2019-01-25T09:58:04.249Z,6440.00
2019-01-25T09:59:04.388Z,6644.00
2019-01-25T10:00:04.531Z,6960.00
2019-01-25T10:01:04.673Z,6948.00
2019-01-25T10:02:04.820Z,6672.00
2019-01-25T10:03:04.959Z,6516.00
2019-01-25T10:04:05.106Z,6648.00
2019-01-25T10:05:05.248Z,6760.00
2019-01-25T10:06:05.396Z,6764.00
2019-01-25T10:07:05.537Z,6592.00
2019-01-25T10:08:05.679Z,6112.00
2019-01-25T10:09:05.821Z,6380.00
2019-01-25T10:10:05.964Z,6604.00
2019-01-25T10:11:06.110Z,6672.00
2019-01-25T10:12:06.253Z,6708.00
2019-01-25T10:13:06.393Z,6704.00
2019-01-25T10:14:06.564Z,6672.00
2019-01-25T10:15:06.680Z,6592.00
2019-01-25T10:16:06.823Z,6508.00
2019-01-25T10:17:06.966Z,6364.00
2019-01-25T10:18:07.110Z,5188.00
2019-01-25T10:19:07.251Z,5392.00
2019-01-25T10:20:07.392Z,5252.00
2019-01-25T10:21:07.534Z,5500.00
2019-01-25T10:22:08.778Z,5624.00
2019-01-25T10:23:07.821Z,5648.00
2019-01-25T10:24:07.963Z,5848.00
2019-01-25T10:25:08.105Z,6104.00
2019-01-25T10:26:08.251Z,6304.00
2019-01-25T10:27:08.391Z,6228.00
2019-01-25T10:28:08.534Z,6156.00
2019-01-25T10:29:08.676Z,6044.00
2019-01-25T10:30:08.821Z,5976.00
2019-01-25T10:31:08.964Z,5960.00
2019-01-25T10:32:09.105Z,5680.00
2019-01-25T10:33:09.249Z,5644.00
2019-01-25T10:34:09.394Z,5644.00
2019-01-25T10:35:09.540Z,6200.00
2019-01-25T10:36:09.681Z,6596.00
2019-01-25T10:37:09.831Z,6616.00
2019-01-25T10:38:09.967Z,6544.00
2019-01-25T10:39:10.112Z,6456.00
2019-01-25T10:40:10.254Z,6240.00
2019-01-25T10:41:10.399Z,5528.00
2019-01-25T10:42:10.542Z,5788.00
2019-01-25T10:43:10.684Z,6392.00
2019-01-25T10:44:10.828Z,6072.00
2019-01-25T10:45:10.970Z,6752.00
2019-01-25T10:46:11.114Z,6500.00
2019-01-25T10:47:11.256Z,6876.00
2019-01-25T10:48:11.402Z,6664.00
2019-01-25T10:49:11.541Z,6672.00
2019-01-25T10:50:11.688Z,6432.00
2019-01-25T10:51:11.826Z,7060.00
2019-01-25T10:52:11.970Z,7292.00
2019-01-25T10:53:12.149Z,7340.00
2019-01-25T10:54:12.255Z,7332.00
2019-01-25T10:55:12.393Z,7276.00
2019-01-25T10:56:12.537Z,7324.00
2019-01-25T10:57:12.683Z,7232.00
2019-01-25T10:58:12.829Z,6848.00
2019-01-25T10:59:12.969Z,7408.00
2019-01-25T11:00:13.112Z,8004.00
2019-01-25T11:01:13.256Z,8400.00
2019-01-25T11:02:13.398Z,7592.00
2019-01-25T11:03:13.546Z,9008.00
2019-01-25T11:04:13.687Z,7148.00
2019-01-25T11:05:13.830Z,8544.00
2019-01-25T11:06:13.978Z,8720.00
2019-01-25T11:07:14.116Z,7276.00
2019-01-25T11:08:14.259Z,5892.00
2019-01-25T11:09:14.400Z,6036.00
2019-01-25T11:10:14.543Z,7012.00
2019-01-25T11:11:14.686Z,6680.00
2019-01-25T11:12:14.830Z,7808.00
2019-01-25T11:13:14.974Z,8792.00
2019-01-25T11:14:15.117Z,9168.00
2019-01-25T11:15:15.259Z,8868.00
2019-01-25T11:16:15.399Z,8184.00
2019-01-25T11:17:15.542Z,7872.00
2019-01-25T11:18:15.683Z,7976.00
2019-01-25T11:19:15.827Z,7492.00
2019-01-25T11:20:15.968Z,7500.00
2019-01-25T11:21:16.111Z,7972.00
2019-01-25T11:22:16.251Z,8120.00
2019-01-25T11:23:16.393Z,8376.00
2019-01-25T11:24:16.536Z,9328.00
2019-01-25T11:25:16.678Z,8856.00
2019-01-25T11:26:16.820Z,9076.00
2019-01-25T11:27:16.968Z,9092.00
2019-01-25T11:28:17.109Z,8464.00
2019-01-25T11:29:17.256Z,7592.00
2019-01-25T11:30:17.394Z,7580.00
2019-01-25T11:31:17.541Z,7796.00
2019-01-25T11:32:17.682Z,7380.00
2019-01-25T11:33:17.825Z,7560.00
2019-01-25T11:34:17.967Z,7596.00
2019-01-25T11:35:18.111Z,7772.00
2019-01-25T11:36:18.254Z,7420.00
2019-01-25T11:37:18.397Z,7796.00
2019-01-25T11:38:18.542Z,8068.00
2019-01-25T11:39:18.687Z,8416.00
2019-01-25T11:40:18.834Z,8792.00
2019-01-25T11:41:18.973Z,8760.00
2019-01-25T11:42:19.115Z,8432.00
2019-01-25T11:43:19.263Z,8024.00
2019-01-25T11:44:19.407Z,8136.00
2019-01-25T11:45:19.550Z,8072.00
2019-01-25T11:46:19.693Z,7936.00
2019-01-25T11:47:19.835Z,7776.00
2019-01-25T11:48:19.979Z,7960.00
2019-01-25T11:49:20.119Z,7728.00
2019-01-25T11:50:20.262Z,7280.00
2019-01-25T11:51:20.408Z,7256.00
2019-01-25T11:52:24.975Z,7328.00
2019-01-25T11:53:20.694Z,7424.00
2019-01-25T11:54:20.836Z,7764.00
2019-01-25T11:55:20.982Z,7744.00
2019-01-25T11:56:21.124Z,7900.00
2019-01-25T11:57:21.268Z,8108.00
2019-01-25T11:58:21.411Z,8236.00
2019-01-25T11:59:21.554Z,8168.00
2019-01-25T12:00:21.698Z,8464.00
2019-01-25T12:01:21.842Z,8380.00
2019-01-25T12:02:21.984Z,8192.00
2019-01-25T12:03:22.127Z,8084.00
2019-01-25T12:04:22.270Z,8072.00
2019-01-25T12:05:22.415Z,7860.00
2019-01-25T12:06:22.559Z,8360.00
2019-01-25T12:07:22.702Z,8636.00
2019-01-25T12:08:22.849Z,8948.00
2019-01-25T12:09:22.993Z,7424.00
2019-01-25T12:10:23.133Z,7648.00
2019-01-25T12:11:23.279Z,7992.00
2019-01-25T12:12:23.422Z,7764.00
2019-01-25T12:13:23.567Z,8132.00
2019-01-25T12:14:23.711Z,8776.00
2019-01-25T12:15:23.864Z,9000.00
2019-01-25T12:16:23.997Z,9020.00
2019-01-25T12:17:24.140Z,8656.00
2019-01-25T12:18:24.373Z,8216.00
2019-01-25T12:19:24.429Z,8100.00
2019-01-25T12:20:24.574Z,7308.00
2019-01-25T12:21:24.718Z,7684.00
2019-01-25T12:22:24.896Z,7848.00
2019-01-25T12:23:25.000Z,7824.00
2019-01-25T12:24:26.431Z,8004.00
2019-01-25T12:25:25.285Z,8084.00
2019-01-25T12:26:25.432Z,8060.00
2019-01-25T12:27:25.574Z,7924.00
2019-01-25T12:28:25.718Z,8192.00
2019-01-25T12:29:25.971Z,8552.00
2019-01-25T12:30:26.005Z,8464.00
2019-01-25T12:31:26.154Z,8100.00
2019-01-25T12:32:26.293Z,7876.00
2019-01-25T12:33:26.439Z,7908.00
2019-01-25T12:34:26.582Z,7560.00
2019-01-25T12:35:26.727Z,7272.00
2019-01-25T12:36:26.871Z,6700.00
2019-01-25T12:37:27.017Z,6640.00
2019-01-25T12:38:27.159Z,7496.00
2019-01-25T12:39:27.305Z,7444.00
2019-01-25T12:40:27.448Z,6788.00
2019-01-25T12:41:27.590Z,6976.00
2019-01-25T12:42:27.734Z,7136.00
2019-01-25T12:43:27.878Z,7040.00
2019-01-25T12:44:28.023Z,6272.00
2019-01-25T12:45:28.184Z,7176.00
2019-01-25T12:46:28.312Z,7184.00
2019-01-25T12:47:28.453Z,7524.00